Time;durP1;ratioP1;P1;durP2;ratioP2;P2;SDS_P1;SDS_P2;PMS_P1;PMS_P2;Temp;Humidity;BMP_temperature;BMP_pressure;BME280_temperature;BME280_humidity;BME280_pressure;Samples;Min_cycle;Max_cycle;Signal;HPM_P1;HPM_P2
2023/04/01 00:01:40;;;;;;;6.53;4.78;;;;;;;;;;5053353;28;20666;-60
2023/04/01 00:04:06;;;;;;;8.45;4.95;;;;;;;;;;5053591;28;20044;-61
2023/04/01 00:06:32;;;;;;;6.90;4.93;;;;;;;;;;5053790;28;20037;-61
2023/04/01 00:08:58;;;;;;;5.43;4.55;;;;;;;;;;5053148;28;20383;-61
2023/04/01 00:11:27;;;;;;;7.38;4.88;;;;;;;;;;5053478;28;20029;-61
2023/04/01 00:13:53;;;;;;;7.65;4.60;;;;;;;;;;5053731;28;20056;-61
2023/04/01 00:16:19;;;;;;;6.40;5.25;;;;;;;;;;5053090;28;20037;-61
2023/04/01 00:18:47;;;;;;;6.75;4.63;;;;;;;;;;5053690;28;20029;-61
2023/04/01 00:21:13;;;;;;;5.28;4.30;;;;;;;;;;5053400;28;20499;-61
2023/04/01 00:23:39;;;;;;;6.15;4.40;;;;;;;;;;5052666;28;20068;-62
2023/04/01 00:26:05;;;;;;;5.68;4.00;;;;;;;;;;5052621;28;20044;-61
2023/04/01 00:28:31;;;;;;;4.55;3.75;;;;;;;;;;5053197;28;20041;-61
2023/04/01 00:30:57;;;;;;;6.60;4.15;;;;;;;;;;5035146;28;20052;-61
2023/04/01 00:33:23;;;;;;;4.70;3.90;;;;;;;;;;5052646;28;20051;-62
2023/04/01 00:35:49;;;;;;;4.50;3.63;;;;;;;;;;5053373;28;20650;-62
2023/04/01 00:38:16;;;;;;;4.25;3.60;;;;;;;;;;5053215;28;20047;-61
2023/04/01 00:40:44;;;;;;;3.50;3.10;;;;;;;;;;5052687;28;20073;-61
2023/04/01 00:43:15;;;;;;;4.25;3.25;;;;;;;;;;5053263;28;20044;-61
2023/04/01 00:45:42;;;;;;;6.55;3.30;;;;;;;;;;5053186;28;20056;-61
2023/04/01 00:48:14;;;;;;;5.25;3.00;;;;;;;;;;5052441;28;20033;-61
2023/04/01 00:50:41;;;;;;;3.22;2.85;;;;;;;;;;5053014;28;20041;-61
2023/04/01 00:53:07;;;;;;;3.30;2.42;;;;;;;;;;5052965;28;20040;-60
2023/04/01 00:55:35;;;;;;;4.25;2.33;;;;;;;;;;5052233;28;20060;-61
2023/04/01 00:58:04;;;;;;;2.85;2.35;;;;;;;;;;5052853;28;20094;-61
2023/04/01 01:00:31;;;;;;;4.82;2.55;;;;;;;;;;5052804;28;20475;-61
2023/04/01 01:02:57;;;;;;;1.45;1.27;;;;;;;;;;5052167;28;20037;-61
2023/04/01 01:05:32;;;;;;;2.28;1.30;;;;;;;;;;5052726;28;20482;-60
2023/04/01 01:08:05;;;;;;;2.80;1.88;;;;;;;;;;5052609;28;20095;-61
2023/04/01 01:10:35;;;;;;;3.13;2.13;;;;;;;;;;5052517;28;20037;-61
2023/04/01 01:13:04;;;;;;;2.60;2.17;;;;;;;;;;5052692;28;20055;-61
2023/04/01 01:15:33;;;;;;;4.07;2.00;;;;;;;;;;5052016;28;20090;-61
2023/04/01 01:18:09;;;;;;;3.08;1.75;;;;;;;;;;5052470;28;20045;-61
2023/04/01 01:20:35;;;;;;;2.72;1.75;;;;;;;;;;5052012;28;20033;-61
2023/04/01 01:23:23;;;;;;;2.20;1.40;;;;;;;;;;5033629;28;20518;-61
2023/04/01 01:26:08;;;;;;;1.90;1.70;;;;;;;;;;5052280;28;20060;-62
2023/04/01 01:28:43;;;;;;;4.90;1.80;;;;;;;;;;5052219;28;20037;-61
2023/04/01 01:31:21;;;;;;;2.65;1.90;;;;;;;;;;5051506;28;20037;-61
2023/04/01 01:34:00;;;;;;;2.90;2.08;;;;;;;;;;5052152;28;20037;-61
2023/04/01 01:36:28;;;;;;;3.17;2.20;;;;;;;;;;5052130;28;20051;-61
2023/04/01 01:38:55;;;;;;;4.25;2.50;;;;;;;;;;5050449;28;20399;-61
2023/04/01 01:41:23;;;;;;;3.63;2.92;;;;;;;;;;5051655;28;20045;-61
2023/04/01 01:43:50;;;;;;;4.13;3.22;;;;;;;;;;5051926;28;20647;-61
2023/04/01 01:46:20;;;;;;;4.70;3.53;;;;;;;;;;5051419;28;20040;-61
2023/04/01 01:48:46;;;;;;;5.97;3.25;;;;;;;;;;5051889;28;20033;-61
2023/04/01 01:51:12;;;;;;;4.28;3.63;;;;;;;;;;5051881;28;20045;-61
2023/04/01 01:53:39;;;;;;;4.93;3.75;;;;;;;;;;5051281;28;20090;-61
2023/04/01 01:56:05;;;;;;;5.38;3.75;;;;;;;;;;5051509;28;20056;-61
2023/04/01 01:58:34;;;;;;;9.25;4.65;;;;;;;;;;5051548;28;20051;-61
2023/04/01 02:01:01;;;;;;;4.63;4.10;;;;;;;;;;5050990;28;20056;-61
2023/04/01 02:03:28;;;;;;;4.70;4.18;;;;;;;;;;5051451;28;20395;-61
2023/04/01 02:05:57;;;;;;;5.60;5.00;;;;;;;;;;5051273;28;20037;-61
2023/04/01 02:08:33;;;;;;;5.55;4.63;;;;;;;;;;5033021;28;20049;-61
2023/04/01 02:11:01;;;;;;;6.30;4.75;;;;;;;;;;5051475;28;20033;-61
2023/04/01 02:13:33;;;;;;;5.10;4.60;;;;;;;;;;5051436;28;20560;-61
2023/04/01 02:16:00;;;;;;;5.70;5.10;;;;;;;;;;5050786;28;20086;-61
2023/04/01 02:18:28;;;;;;;7.70;4.60;;;;;;;;;;5051331;28;20048;-61
2023/04/01 02:20:55;;;;;;;6.55;5.20;;;;;;;;;;5051356;28;20441;-61
2023/04/01 02:23:21;;;;;;;5.95;4.60;;;;;;;;;;5050243;28;20139;-61
2023/04/01 02:25:48;;;;;;;7.72;4.78;;;;;;;;;;5051084;28;20083;-61
2023/04/01 02:28:17;;;;;;;6.93;5.00;;;;;;;;;;5051178;28;20064;-61
2023/04/01 02:30:44;;;;;;;5.20;4.68;;;;;;;;;;5050403;28;20850;-61
2023/04/01 02:33:10;;;;;;;7.00;4.90;;;;;;;;;;5051084;28;20544;-61
2023/04/01 02:35:37;;;;;;;5.00;4.50;;;;;;;;;;5051040;28;20521;-61
2023/04/01 02:38:03;;;;;;;6.63;4.78;;;;;;;;;;5050408;28;20045;-61
2023/04/01 02:40:29;;;;;;;6.30;4.68;;;;;;;;;;5050759;28;20052;-61
2023/04/01 02:42:55;;;;;;;6.55;4.38;;;;;;;;;;5051019;28;20479;-61
2023/04/01 02:45:21;;;;;;;8.55;4.45;;;;;;;;;;5050275;28;20379;-62
2023/04/01 02:47:47;;;;;;;5.65;4.60;;;;;;;;;;5050818;28;20413;-61
2023/04/01 02:50:14;;;;;;;6.68;4.30;;;;;;;;;;5050810;28;20518;-61
2023/04/01 02:52:40;;;;;;;7.35;4.35;;;;;;;;;;5050472;28;20076;-61
2023/04/01 02:55:07;;;;;;;6.45;4.95;;;;;;;;;;5051054;28;20060;-61
2023/04/01 02:57:33;;;;;;;6.47;4.38;;;;;;;;;;5050907;28;20076;-61
2023/04/01 02:59:59;;;;;;;5.72;4.60;;;;;;;;;;5050230;28;20487;-61
2023/04/01 03:02:25;;;;;;;6.78;4.45;;;;;;;;;;5050766;28;20513;-61
2023/04/01 03:04:51;;;;;;;5.68;4.40;;;;;;;;;;5050411;28;20052;-61
2023/04/01 03:07:17;;;;;;;5.65;4.28;;;;;;;;;;5050028;28;20037;-61
2023/04/01 03:09:43;;;;;;;5.65;4.50;;;;;;;;;;5050504;28;20045;-61
2023/04/01 03:12:09;;;;;;;5.10;4.30;;;;;;;;;;5050426;28;20041;-61
2023/04/01 03:14:35;;;;;;;4.97;3.83;;;;;;;;;;5049984;28;20456;-62
2023/04/01 03:17:01;;;;;;;5.50;4.13;;;;;;;;;;5050585;28;20041;-61
2023/04/01 03:19:27;;;;;;;4.70;3.97;;;;;;;;;;5049034;28;20045;-61
2023/04/01 03:21:53;;;;;;;7.25;4.55;;;;;;;;;;5049622;28;20136;-61
2023/04/01 03:24:20;;;;;;;5.45;4.20;;;;;;;;;;5050527;28;20747;-60
2023/04/01 03:26:46;;;;;;;9.23;4.80;;;;;;;;;;5050483;28;20041;-61
2023/04/01 03:29:12;;;;;;;5.60;4.72;;;;;;;;;;5049828;28;20357;-63
2023/04/01 03:31:38;;;;;;;6.80;5.28;;;;;;;;;;5050254;28;20045;-61
2023/04/01 03:34:04;;;;;;;5.80;4.88;;;;;;;;;;5050363;28;20123;-61
2023/04/01 03:36:30;;;;;;;7.18;5.18;;;;;;;;;;5049430;28;20045;-61
2023/04/01 03:38:56;;;;;;;7.05;5.88;;;;;;;;;;5032398;28;20037;-61
2023/04/01 03:41:22;;;;;;;8.30;6.05;;;;;;;;;;5050273;28;20072;-61
2023/04/01 03:43:48;;;;;;;6.60;5.32;;;;;;;;;;5049448;28;20037;-61
2023/04/01 03:46:21;;;;;;;7.70;5.60;;;;;;;;;;5050284;28;20468;-61
2023/04/01 03:48:47;;;;;;;;;;;;;;;;;;5050718;28;20037;-61
2023/04/01 03:51:13;;;;;;;8.48;5.72;;;;;;;;;;5049526;28;19931;-61
2023/04/01 03:53:39;;;;;;;7.18;5.15;;;;;;;;;;5050394;28;20048;-61
2023/04/01 03:56:06;;;;;;;7.25;5.65;;;;;;;;;;5050258;28;20045;-61
2023/04/01 03:58:32;;;;;;;9.27;5.60;;;;;;;;;;5049299;28;20051;-61
2023/04/01 04:00:58;;;;;;;7.97;5.28;;;;;;;;;;5050173;28;20087;-61
2023/04/01 04:03:24;;;;;;;8.35;5.80;;;;;;;;;;5053662;28;20083;-61
2023/04/01 04:05:50;;;;;;;7.13;5.13;;;;;;;;;;5053188;28;20041;-61
2023/04/01 04:08:17;;;;;;;7.38;5.13;;;;;;;;;;5053488;28;20077;-61
2023/04/01 04:10:43;;;;;;;6.60;5.13;;;;;;;;;;5053798;28;20663;-61
2023/04/01 04:13:09;;;;;;;6.93;5.18;;;;;;;;;;5053223;28;20052;-61
2023/04/01 04:15:35;;;;;;;8.32;5.22;;;;;;;;;;5053688;28;20044;-62
2023/04/01 04:18:01;;;;;;;9.70;5.30;;;;;;;;;;5053610;28;20364;-61
2023/04/01 04:20:30;;;;;;;6.53;4.82;;;;;;;;;;5052927;28;20106;-61
2023/04/01 04:22:56;;;;;;;6.47;5.00;;;;;;;;;;5053139;28;20045;-61
2023/04/01 04:25:22;;;;;;;8.90;4.72;;;;;;;;;;5053273;28;20060;-61
2023/04/01 04:27:49;;;;;;;7.00;5.05;;;;;;;;;;5053101;28;20041;-61
2023/04/01 04:30:15;;;;;;;6.07;4.82;;;;;;;;;;5053006;28;20087;-61
2023/04/01 04:32:41;;;;;;;7.03;5.07;;;;;;;;;;5053455;28;20529;-61
2023/04/01 04:35:08;;;;;;;7.55;5.50;;;;;;;;;;5053323;28;20597;-61
2023/04/01 04:37:34;;;;;;;5.90;4.55;;;;;;;;;;5052745;28;20123;-61
2023/04/01 04:40:00;;;;;;;6.63;4.85;;;;;;;;;;5053215;28;20664;-61
2023/04/01 04:42:26;;;;;;;7.05;5.07;;;;;;;;;;5053291;28;20037;-61
2023/04/01 04:44:52;;;;;;;6.32;4.93;;;;;;;;;;5052367;28;20037;-61
2023/04/01 04:47:18;;;;;;;6.38;4.95;;;;;;;;;;5053041;28;20045;-61
2023/04/01 04:49:44;;;;;;;7.20;5.15;;;;;;;;;;5052972;28;20037;-61
2023/04/01 04:52:10;;;;;;;8.70;5.00;;;;;;;;;;5052519;28;20132;-61
2023/04/01 04:54:36;;;;;;;7.20;4.60;;;;;;;;;;5053068;28;20767;-61
2023/04/01 04:57:02;;;;;;;7.30;5.32;;;;;;;;;;5052658;28;20045;-61
2023/04/01 04:59:28;;;;;;;8.07;5.32;;;;;;;;;;5052278;28;20048;-61
2023/04/01 05:01:54;;;;;;;7.32;5.10;;;;;;;;;;5052438;28;20380;-61
2023/04/01 05:04:20;;;;;;;9.02;5.22;;;;;;;;;;5052620;28;20052;-61
2023/04/01 05:06:46;;;;;;;6.43;4.53;;;;;;;;;;5051586;28;20124;-61
2023/04/01 05:09:12;;;;;;;7.03;4.63;;;;;;;;;;5052655;28;20041;-61
2023/04/01 05:11:40;;;;;;;5.68;4.20;;;;;;;;;;5052557;28;20044;-61
2023/04/01 05:14:06;;;;;;;6.30;4.70;;;;;;;;;;5050983;28;20063;-61
2023/04/01 05:16:32;;;;;;;6.22;4.40;;;;;;;;;;5052374;28;20033;-62
2023/04/01 05:18:58;;;;;;;6.18;3.97;;;;;;;;;;5052324;28;20037;-61
2023/04/01 05:21:24;;;;;;;4.65;3.70;;;;;;;;;;5051320;28;20127;-61
2023/04/01 05:23:50;;;;;;;4.88;3.78;;;;;;;;;;5050262;28;20049;-60
2023/04/01 05:26:16;;;;;;;5.13;3.78;;;;;;;;;;5051001;28;20122;-61
2023/04/01 05:28:42;;;;;;;4.20;3.42;;;;;;;;;;5050151;28;20471;-61
2023/04/01 05:31:08;;;;;;;5.40;3.42;;;;;;;;;;5050962;28;20068;-61
2023/04/01 05:33:34;;;;;;;3.35;2.92;;;;;;;;;;5050879;28;20045;-61
2023/04/01 05:36:11;;;;;;;4.88;4.00;;;;;;;;;;5050025;28;20045;-61
2023/04/01 05:38:37;;;;;;;7.40;3.45;;;;;;;;;;5050800;28;20501;-61
2023/04/01 05:41:03;;;;;;;4.18;3.65;;;;;;;;;;5050536;28;20056;-61
2023/04/01 05:43:29;;;;;;;6.22;4.15;;;;;;;;;;5049723;28;20055;-60
2023/04/01 05:45:56;;;;;;;5.32;3.83;;;;;;;;;;5050367;28;20037;-61
2023/04/01 05:48:22;;;;;;;5.57;3.75;;;;;;;;;;5049983;28;20110;-62
2023/04/01 05:50:48;;;;;;;4.93;3.85;;;;;;;;;;5049725;28;20037;-61
2023/04/01 05:53:14;;;;;;;7.35;4.88;;;;;;;;;;5050275;28;20055;-61
2023/04/01 05:55:40;;;;;;;6.63;4.53;;;;;;;;;;5050375;28;20546;-61
2023/04/01 05:58:06;;;;;;;6.65;4.95;;;;;;;;;;5049941;28;20045;-61
2023/04/01 06:00:32;;;;;;;8.18;5.28;;;;;;;;;;5049850;28;20470;-60
2023/04/01 06:03:01;;;;;;;7.28;5.68;;;;;;;;;;5050125;28;20041;-61
2023/04/01 06:05:31;;;;;;;8.85;6.38;;;;;;;;;;5049439;28;20041;-61
2023/04/01 06:08:05;;;;;;;9.05;6.45;;;;;;;;;;5050109;28;20123;-61
2023/04/01 06:10:55;;;;;;;8.60;6.10;;;;;;;;;;5049963;28;20123;-61
2023/04/01 06:13:39;;;;;;;13.05;7.10;;;;;;;;;;5046025;28;20142;-61
2023/04/01 06:16:24;;;;;;;9.70;6.80;;;;;;;;;;5049659;28;20041;-61
2023/04/01 06:18:56;;;;;;;10.30;7.53;;;;;;;;;;5049601;28;20056;-61
2023/04/01 06:21:30;;;;;;;10.63;8.38;;;;;;;;;;5049711;28;20048;-61
2023/04/01 06:24:02;;;;;;;14.27;8.40;;;;;;;;;;5049010;28;20045;-61
2023/04/01 06:26:38;;;;;;;15.25;9.05;;;;;;;;;;5049062;28;20076;-61
2023/04/01 06:29:09;;;;;;;13.43;8.73;;;;;;;;;;5049737;28;20441;-61
2023/04/01 06:31:35;;;;;;;12.20;8.60;;;;;;;;;;5049655;28;20033;-61
2023/04/01 06:34:13;;;;;;;12.88;9.23;;;;;;;;;;5048954;28;20072;-61
2023/04/01 06:36:58;;;;;;;10.88;7.95;;;;;;;;;;5049918;28;20410;-61
2023/04/01 06:39:30;;;;;;;12.65;7.57;;;;;;;;;;5049341;28;20128;-61
2023/04/01 06:42:18;;;;;;;9.13;7.47;;;;;;;;;;5048598;28;20087;-61
2023/04/01 06:44:50;;;;;;;9.82;7.15;;;;;;;;;;5049561;28;20036;-61
2023/04/01 06:47:34;;;;;;;8.07;6.05;;;;;;;;;;5049543;28;20118;-61
2023/04/01 06:50:05;;;;;;;7.78;5.65;;;;;;;;;;5048677;28;20495;-61
2023/04/01 06:52:37;;;;;;;7.35;5.05;;;;;;;;;;5049388;28;20041;-61
2023/04/01 06:55:18;;;;;;;8.70;5.68;;;;;;;;;;5049649;28;20053;-61
2023/04/01 06:57:48;;;;;;;7.95;5.10;;;;;;;;;;5048615;28;20043;-61
2023/04/01 07:00:16;;;;;;;6.45;4.25;;;;;;;;;;5049294;28;20047;-61
2023/04/01 07:02:43;;;;;;;5.85;4.25;;;;;;;;;;5048842;28;20059;-61
2023/04/01 07:05:11;;;;;;;4.95;4.15;;;;;;;;;;5048250;28;20064;-61
2023/04/01 07:07:43;;;;;;;4.75;3.92;;;;;;;;;;5049217;28;20399;-61
2023/04/01 07:10:28;;;;;;;7.05;4.50;;;;;;;;;;5049067;28;20040;-61
2023/04/01 07:12:57;;;;;;;6.95;4.25;;;;;;;;;;5048509;28;20518;-61
2023/04/01 07:15:29;;;;;;;5.88;3.97;;;;;;;;;;5049039;28;20052;-61
2023/04/01 07:18:15;;;;;;;4.95;3.92;;;;;;;;;;5048897;28;20049;-61
2023/04/01 07:20:41;;;;;;;5.40;3.83;;;;;;;;;;5048929;28;20056;-61
2023/04/01 07:23:16;;;;;;;5.28;4.15;;;;;;;;;;5048557;28;20053;-61
2023/04/01 07:25:44;;;;;;;6.90;4.15;;;;;;;;;;5048314;28;20455;-60
2023/04/01 07:28:14;;;;;;;5.50;4.18;;;;;;;;;;5048830;28;20060;-61
2023/04/01 07:31:02;;;;;;;5.15;3.60;;;;;;;;;;5048943;28;20090;-60
2023/04/01 07:33:40;;;;;;;5.00;4.05;;;;;;;;;;5048313;28;20116;-61
2023/04/01 07:36:14;;;;;;;5.22;3.45;;;;;;;;;;5049107;28;20098;-61
2023/04/01 07:38:46;;;;;;;4.50;3.25;;;;;;;;;;5052806;28;20120;-61
2023/04/01 07:41:32;;;;;;;7.88;3.88;;;;;;;;;;5052200;28;20064;-61
2023/04/01 07:43:58;;;;;;;6.65;5.03;;;;;;;;;;5052241;28;20080;-61
2023/04/01 07:46:26;;;;;;;7.35;4.78;;;;;;;;;;5052706;28;20045;-61
2023/04/01 07:48:52;;;;;;;7.20;5.05;;;;;;;;;;5034196;28;20511;-61
2023/04/01 07:51:24;;;;;;;10.52;5.90;;;;;;;;;;5034711;28;20095;-61
2023/04/01 07:53:50;;;;;;;;;;;;;;;;;;5053086;28;20052;-61
2023/04/01 07:56:18;;;;;;;7.03;5.43;;;;;;;;;;5051924;28;19920;-60
2023/04/01 07:58:53;;;;;;;11.77;6.57;;;;;;;;;;5034656;28;20125;-61
2023/04/01 08:01:39;;;;;;;9.98;6.70;;;;;;;;;;5052449;28;20037;-61
2023/04/01 08:04:15;;;;;;;9.05;6.65;;;;;;;;;;5051685;28;20049;-61
2023/04/01 08:06:46;;;;;;;12.18;8.52;;;;;;;;;;5034560;28;20049;-61
2023/04/01 08:09:30;;;;;;;11.15;7.95;;;;;;;;;;5052284;28;20047;-59
2023/04/01 08:11:58;;;;;;;11.43;7.63;;;;;;;;;;5051476;28;20087;-61
2023/04/01 08:14:33;;;;;;;11.35;7.47;;;;;;;;;;5052238;28;20048;-61
2023/04/01 08:17:13;;;;;;;11.98;7.60;;;;;;;;;;5052364;28;20037;-61
2023/04/01 08:19:56;;;;;;;9.93;6.93;;;;;;;;;;5051658;28;20146;-61
2023/04/01 08:22:28;;;;;;;9.13;6.95;;;;;;;;;;5051621;28;20047;-61
2023/04/01 08:24:57;;;;;;;9.07;6.95;;;;;;;;;;5051263;28;20060;-61
2023/04/01 08:27:23;;;;;;;8.45;6.53;;;;;;;;;;5052076;28;20041;-61
2023/04/01 08:29:52;;;;;;;10.05;7.55;;;;;;;;;;5051832;28;20044;-61
2023/04/01 08:32:21;;;;;;;9.15;7.25;;;;;;;;;;5051128;28;20045;-61
2023/04/01 08:34:51;;;;;;;9.98;7.75;;;;;;;;;;5051830;28;20142;-61
2023/04/01 08:37:22;;;;;;;9.82;7.32;;;;;;;;;;5051831;28;20036;-61
2023/04/01 08:39:51;;;;;;;9.10;6.78;;;;;;;;;;5051117;28;20475;-61
2023/04/01 08:42:36;;;;;;;9.13;6.07;;;;;;;;;;5051656;28;20041;-61
2023/04/01 08:45:05;;;;;;;8.10;5.25;;;;;;;;;;5051452;28;20111;-61
2023/04/01 08:47:50;;;;;;;6.00;4.40;;;;;;;;;;5050649;28;20045;-61
2023/04/01 08:50:34;;;;;;;7.07;5.22;;;;;;;;;;5051453;28;20041;-61
2023/04/01 08:53:00;;;;;;;5.95;4.20;;;;;;;;;;5051399;28;20080;-61
2023/04/01 08:55:47;;;;;;;6.40;4.35;;;;;;;;;;5050773;28;20079;-61
2023/04/01 08:58:19;;;;;;;4.78;3.10;;;;;;;;;;5050989;28;20087;-61
2023/04/01 09:00:56;;;;;;;3.47;2.83;;;;;;;;;;5051535;28;20056;-61
2023/04/01 09:03:34;;;;;;;3.03;1.90;;;;;;;;;;5050352;28;20044;-60
2023/04/01 09:06:15;;;;;;;3.83;2.17;;;;;;;;;;5051294;28;20041;-61
2023/04/01 09:09:00;;;;;;;3.53;2.80;;;;;;;;;;5033262;28;20124;-61
2023/04/01 09:11:46;;;;;;;4.35;2.92;;;;;;;;;;5051000;28;20033;-61
2023/04/01 09:14:12;;;;;;;5.15;3.50;;;;;;;;;;5051138;28;20088;-61
2023/04/01 09:16:58;;;;;;;6.60;3.75;;;;;;;;;;5050591;28;20464;-61
2023/04/01 09:19:36;;;;;;;5.95;4.63;;;;;;;;;;5050989;28;20502;-61
2023/04/01 09:22:02;;;;;;;6.65;4.97;;;;;;;;;;5050881;28;20041;-61
2023/04/01 09:24:31;;;;;;;9.52;5.72;;;;;;;;;;5050300;28;20175;-61
2023/04/01 09:26:57;;;;;;;7.88;5.43;;;;;;;;;;5050819;28;20044;-61
2023/04/01 09:29:35;;;;;;;8.95;6.55;;;;;;;;;;5050441;28;20045;-61
2023/04/01 09:32:10;;;;;;;9.63;7.00;;;;;;;;;;5050102;28;20480;-61
2023/04/01 09:34:51;;;;;;;11.88;7.47;;;;;;;;;;5050783;28;20103;-61
2023/04/01 09:37:32;;;;;;;13.05;7.35;;;;;;;;;;5050814;28;20483;-61
2023/04/01 09:40:01;;;;;;;10.75;7.60;;;;;;;;;;5049810;28;20047;-61
2023/04/01 09:42:37;;;;;;;11.55;7.53;;;;;;;;;;5050420;28;20040;-61
2023/04/01 09:45:21;;;;;;;11.32;8.10;;;;;;;;;;5050228;28;20087;-61
2023/04/01 09:47:55;;;;;;;11.73;8.18;;;;;;;;;;5050118;28;20040;-61
2023/04/01 09:50:47;;;;;;;11.35;8.65;;;;;;;;;;5050242;28;20045;-61
2023/04/01 09:53:20;;;;;;;12.23;8.00;;;;;;;;;;5048911;28;20057;-61
2023/04/01 09:55:46;;;;;;;11.18;8.40;;;;;;;;;;5049782;28;20044;-61
2023/04/01 09:58:26;;;;;;;12.10;8.63;;;;;;;;;;5050187;28;20491;-61
2023/04/01 10:01:11;;;;;;;11.38;8.80;;;;;;;;;;5049020;28;20049;-61
2023/04/01 10:03:54;;;;;;;12.98;9.20;;;;;;;;;;5049962;28;20406;-61
2023/04/01 10:06:39;;;;;;;11.75;8.65;;;;;;;;;;5050006;28;20053;-61
2023/04/01 10:09:05;;;;;;;11.93;8.52;;;;;;;;;;5049680;28;20060;-61
2023/04/01 10:11:50;;;;;;;16.35;9.13;;;;;;;;;;5049841;28;20056;-61
2023/04/01 10:14:15;;;;;;;14.10;9.18;;;;;;;;;;5050019;28;20041;-61
2023/04/01 10:17:00;;;;;;;15.15;9.05;;;;;;;;;;5049182;28;20048;-61
2023/04/01 10:20:05;;;;;;;13.63;10.10;;;;;;;;;;5049789;28;20466;-61
2023/04/01 10:22:43;;;;;;;11.63;9.15;;;;;;;;;;5026573;28;20132;-61
2023/04/01 10:25:09;;;;;;;12.23;9.25;;;;;;;;;;5025439;28;20168;-61
2023/04/01 10:27:41;;;;;;;12.82;9.70;;;;;;;;;;5038703;28;20041;-61
2023/04/01 10:30:16;;;;;;;13.35;9.98;;;;;;;;;;5048705;28;20532;-61
2023/04/01 10:32:48;;;;;;;12.90;9.68;;;;;;;;;;5047811;28;20084;-61
2023/04/01 10:35:49;;;;;;;14.82;9.68;;;;;;;;;;5048379;28;20048;-61
2023/04/01 10:38:30;;;;;;;13.20;9.32;;;;;;;;;;5048254;28;20094;-61
2023/04/01 10:41:19;;;;;;;12.13;9.38;;;;;;;;;;5048635;28;20045;-61
2023/04/01 10:44:12;;;;;;;14.15;9.43;;;;;;;;;;5048462;28;20048;-61
2023/04/01 10:46:40;;;;;;;12.05;9.07;;;;;;;;;;5048063;28;20041;-61
2023/04/01 10:49:08;;;;;;;11.63;8.68;;;;;;;;;;5048284;28;20048;-61
2023/04/01 10:51:53;;;;;;;11.45;8.07;;;;;;;;;;5048530;28;20033;-61
2023/04/01 10:54:21;;;;;;;9.73;7.78;;;;;;;;;;5048124;28;20089;-61
2023/04/01 10:56:48;;;;;;;7.65;6.30;;;;;;;;;;5048622;28;20037;-61
2023/04/01 10:59:36;;;;;;;5.97;5.18;;;;;;;;;;5048013;28;20048;-61
2023/04/01 11:02:04;;;;;;;5.82;4.95;;;;;;;;;;5047665;28;20044;-61
2023/04/01 11:04:36;;;;;;;5.53;4.38;;;;;;;;;;5048325;28;20120;-61
2023/04/01 11:07:08;;;;;;;5.63;4.35;;;;;;;;;;5048633;28;20044;-61
2023/04/01 11:09:46;;;;;;;5.25;4.75;;;;;;;;;;5047642;28;20071;-61
2023/04/01 11:12:40;;;;;;;5.40;4.65;;;;;;;;;;5047140;28;20132;-61
2023/04/01 11:15:17;;;;;;;5.32;4.78;;;;;;;;;;5047653;28;20036;-61
2023/04/01 11:17:58;;;;;;;6.30;4.80;;;;;;;;;;5048257;28;20047;-61
2023/04/01 11:20:37;;;;;;;5.68;4.72;;;;;;;;;;5047818;28;20080;-61
2023/04/01 11:23:06;;;;;;;6.70;4.63;;;;;;;;;;5006931;28;1175527;-61
2023/04/01 11:25:51;;;;;;;6.50;5.05;;;;;;;;;;5048785;28;20059;-61
2023/04/01 11:28:35;;;;;;;5.18;4.68;;;;;;;;;;5048776;28;20068;-61
2023/04/01 11:31:13;;;;;;;7.00;4.72;;;;;;;;;;5048568;28;20037;-61
2023/04/01 11:33:58;;;;;;;5.32;4.50;;;;;;;;;;5048892;28;20047;-61
2023/04/01 11:36:36;;;;;;;5.78;4.40;;;;;;;;;;5048820;28;20099;-61
2023/04/01 11:39:05;;;;;;;8.27;4.85;;;;;;;;;;5048145;28;20141;-61
2023/04/01 11:41:51;;;;;;;6.78;4.80;;;;;;;;;;5048671;28;20191;-61
2023/04/01 11:44:20;;;;;;;5.72;4.22;;;;;;;;;;5048659;28;20502;-60
2023/04/01 11:47:04;;;;;;;5.82;4.53;;;;;;;;;;5048170;28;20033;-61
2023/04/01 11:49:36;;;;;;;5.40;3.97;;;;;;;;;;5048714;28;20036;-61
2023/04/01 11:52:21;;;;;;;3.95;3.38;;;;;;;;;;5048221;28;20040;-61
2023/04/01 11:55:06;;;;;;;4.80;4.03;;;;;;;;;;5048881;28;20041;-61
2023/04/01 11:57:44;;;;;;;3.75;3.35;;;;;;;;;;5048710;28;20041;-61
2023/04/01 12:00:19;;;;;;;4.10;3.58;;;;;;;;;;5047974;28;20442;-61
2023/04/01 12:02:55;;;;;;;3.95;3.55;;;;;;;;;;5048497;28;20041;-61
2023/04/01 12:05:33;;;;;;;3.78;3.47;;;;;;;;;;5048560;28;20073;-61
2023/04/01 12:08:02;;;;;;;5.05;4.13;;;;;;;;;;5030239;28;20059;-61
2023/04/01 12:10:46;;;;;;;3.58;3.28;;;;;;;;;;5048515;28;20048;-61
2023/04/01 12:13:33;;;;;;;4.43;3.67;;;;;;;;;;5048757;28;20130;-61
2023/04/01 12:16:05;;;;;;;4.30;3.38;;;;;;;;;;5036293;28;20381;-61
2023/04/01 12:18:31;;;;;;;;;;;;;;;;;;5031104;28;20140;-61
2023/04/01 12:20:57;;;;;;;;;;;;;;;;;;5048868;28;19951;-61
2023/04/01 12:23:23;;;;;;;;;;;;;;;;;;5049976;28;19924;-61
2023/04/01 12:25:49;;;;;;;;;;;;;;;;;;5052285;28;19920;-61
2023/04/01 12:28:15;;;;;;;;;;;;;;;;;;5052329;28;19920;-61
2023/04/01 12:30:41;;;;;;;;;;;;;;;;;;5051616;28;19928;-61
2023/04/01 12:33:06;;;;;;;;;;;;;;;;;;5052340;28;19920;-60
2023/04/01 12:35:32;;;;;;;;;;;;;;;;;;5052323;28;19917;-61
2023/04/01 12:37:58;;;;;;;;;;;;;;;;;;5051639;28;19924;-61
2023/04/01 12:40:26;;;;;;;;;;;;;;;;;;5052134;28;19916;-61
2023/04/01 12:42:51;;;;;;;;;;;;;;;;;;5052098;28;19928;-61
2023/04/01 12:45:17;;;;;;;;;;;;;;;;;;5051445;28;19916;-61
2023/04/01 12:47:43;;;;;;;;;;;;;;;;;;5051889;28;19921;-61
2023/04/01 12:50:09;;;;;;;;;;;;;;;;;;5052054;28;19921;-61
2023/04/01 12:52:35;;;;;;;;;;;;;;;;;;5051388;28;19916;-61
2023/04/01 12:55:03;;;;;;;;;;;;;;;;;;5052069;28;19928;-61
2023/04/01 12:57:28;;;;;;;;;;;;;;;;;;5051539;28;19920;-61
2023/04/01 12:59:54;;;;;;;;;;;;;;;;;;5051168;28;19928;-61
2023/04/01 13:02:20;;;;;;;;;;;;;;;;;;5051585;28;20030;-61
2023/04/01 13:04:46;;;;;;;;;;;;;;;;;;5051736;28;20397;-61
2023/04/01 13:07:12;;;;;;;;;;;;;;;;;;5051391;28;19920;-61
2023/04/01 13:09:38;;;;;;;;;;;;;;;;;;5051506;28;19927;-61
2023/04/01 13:12:04;;;;;;;;;;;;;;;;;;5051623;28;19956;-60
2023/04/01 13:14:31;;;;;;;;;;;;;;;;;;5050978;28;19920;-61
2023/04/01 13:16:57;;;;;;;;;;;;;;;;;;5051693;28;19921;-61
2023/04/01 13:19:23;;;;;;;;;;;;;;;;;;5051453;28;19925;-61
2023/04/01 13:21:51;;;;;;;;;;;;;;;;;;5050601;28;19921;-61
2023/04/01 13:24:17;;;;;;;;;;;;;;;;;;5051250;28;19942;-61
2023/04/01 13:26:43;;;;;;;;;;;;;;;;;;5051129;28;19916;-61
2023/04/01 13:29:08;;;;;;;;;;;;;;;;;;5050835;28;19917;-61
2023/04/01 13:31:34;;;;;;;;;;;;;;;;;;5051419;28;20564;-61
2023/04/01 13:34:00;;;;;;;;;;;;;;;;;;5050301;28;19921;-61
2023/04/01 13:36:26;;;;;;;;;;;;;;;;;;5050323;28;20360;-61
2023/04/01 13:38:53;;;;;;;;;;;;;;;;;;5051078;28;19917;-61
2023/04/01 13:41:20;;;;;;;;;;;;;;;;;;5051095;28;19917;-61
2023/04/01 13:43:46;;;;;;;;;;;;;;;;;;5050583;28;19925;-61
2023/04/01 13:46:12;;;;;;;;;;;;;;;;;;5050927;28;19974;-61
2023/04/01 13:48:38;;;;;;;;;;;;;;;;;;5050910;28;19917;-61
2023/04/01 13:51:04;;;;;;;;;;;;;;;;;;5050138;28;20367;-61
2023/04/01 13:53:30;;;;;;;;;;;;;;;;;;5051045;28;19971;-61
2023/04/01 13:55:56;;;;;;;;;;;;;;;;;;5032795;28;19927;-61
2023/04/01 13:58:22;;;;;;;;;;;;;;;;;;5050016;28;19916;-60
2023/04/01 14:00:48;;;;;;;;;;;;;;;;;;5050551;28;19917;-60
2023/04/01 14:03:14;;;;;;;;;;;;;;;;;;5050508;28;19978;-61
2023/04/01 14:05:40;;;;;;;;;;;;;;;;;;5049756;28;19964;-61
2023/04/01 14:08:06;;;;;;;;;;;;;;;;;;5050218;28;19968;-61
2023/04/01 14:10:32;;;;;;;;;;;;;;;;;;5050400;28;19921;-61
2023/04/01 14:12:58;;;;;;;;;;;;;;;;;;5049754;28;19920;-60
2023/04/01 14:15:24;;;;;;;;;;;;;;;;;;5050300;28;20371;-61
2023/04/01 14:17:50;;;;;;;;;;;;;;;;;;5050272;28;19927;-60
2023/04/01 14:20:16;;;;;;;;;;;;;;;;;;5050041;28;19916;-61
2023/04/01 14:22:42;;;;;;;;;;;;;;;;;;5049829;28;19921;-61
2023/04/01 14:25:08;;;;;;;;;;;;;;;;;;5050137;28;19917;-60
2023/04/01 14:27:34;;;;;;;;;;;;;;;;;;5049282;28;20409;-60
2023/04/01 14:30:00;;;;;;;;;;;;;;;;;;5032202;28;19921;-60
2023/04/01 14:32:26;;;;;;;;;;;;;;;;;;5050359;28;19929;-61
2023/04/01 14:34:52;;;;;;;;;;;;;;;;;;5049470;28;19923;-61
2023/04/01 14:37:17;;;;;;;;;;;;;;;;;;5049917;28;19973;-61
2023/04/01 14:39:44;;;;;;;;;;;;;;;;;;5049831;28;20291;-61
2023/04/01 14:42:10;;;;;;;;;;;;;;;;;;5049283;28;19998;-61
2023/04/01 14:44:36;;;;;;;;;;;;;;;;;;5050052;28;19920;-61
2023/04/01 14:47:02;;;;;;;;;;;;;;;;;;5049668;28;20707;-61
2023/04/01 14:49:28;;;;;;;;;;;;;;;;;;5049358;28;19917;-61
2023/04/01 14:51:54;;;;;;;;;;;;;;;;;;5049368;28;20440;-61
2023/04/01 14:54:23;;;;;;;;;;;;;;;;;;5049826;28;19971;-61
2023/04/01 14:56:49;;;;;;;;;;;;;;;;;;5049451;28;20263;-61
2023/04/01 14:59:15;;;;;;;;;;;;;;;;;;5049379;28;19917;-61
2023/04/01 15:01:42;;;;;;;;;;;;;;;;;;5049336;28;20028;-60
2023/04/01 15:04:08;;;;;;;;;;;;;;;;;;5049539;28;20206;-60
2023/04/01 15:06:34;;;;;;;;;;;;;;;;;;5048993;28;19974;-61
2023/04/01 15:09:00;;;;;;;;;;;;;;;;;;5049468;28;19921;-61
2023/04/01 15:11:26;;;;;;;;;;;;;;;;;;5049539;28;19966;-61
2023/04/01 15:13:52;;;;;;;;;;;;;;;;;;5048883;28;19917;-61
2023/04/01 15:16:17;;;;;;;;;;;;;;;;;;5049458;28;19924;-61
2023/04/01 15:18:43;;;;;;;;;;;;;;;;;;5049812;28;19921;-60
2023/04/01 15:21:09;;;;;;;;;;;;;;;;;;5048621;28;19991;-61
2023/04/01 15:23:35;;;;;;;;;;;;;;;;;;5048948;28;19925;-61
2023/04/01 15:26:01;;;;;;;;;;;;;;;;;;5049263;28;19923;-61